sensor_id;sensor_type;location;lat;lon;timestamp;P1;durP1;ratioP1;P2;durP2;ratioP2
78382;SDS011;67668;52.294;4.692;2023-05-10T00:02:59;23.77;;;13.05;;
78382;SDS011;67668;52.294;4.692;2023-05-10T00:05:24;23.07;;;12.83;;
78382;SDS011;67668;52.294;4.692;2023-05-10T00:07:49;17.67;;;11.70;;
78382;SDS011;67668;52.294;4.692;2023-05-10T00:10:15;18.50;;;12.60;;
78382;SDS011;67668;52.294;4.692;2023-05-10T00:12:40;17.65;;;11.75;;
78382;SDS011;67668;52.294;4.692;2023-05-10T00:15:06;19.42;;;11.50;;
78382;SDS011;67668;52.294;4.692;2023-05-10T00:17:32;16.20;;;11.38;;
78382;SDS011;67668;52.294;4.692;2023-05-10T00:19:57;19.58;;;12.10;;
78382;SDS011;67668;52.294;4.692;2023-05-10T00:22:23;17.65;;;12.20;;
78382;SDS011;67668;52.294;4.692;2023-05-10T00:24:48;17.20;;;11.32;;
78382;SDS011;67668;52.294;4.692;2023-05-10T00:27:14;19.50;;;13.03;;
78382;SDS011;67668;52.294;4.692;2023-05-10T00:29:39;16.15;;;10.73;;
78382;SDS011;67668;52.294;4.692;2023-05-10T00:32:04;17.87;;;11.53;;
78382;SDS011;67668;52.294;4.692;2023-05-10T00:34:31;19.90;;;12.43;;
78382;SDS011;67668;52.294;4.692;2023-05-10T00:36:56;19.33;;;13.70;;
78382;SDS011;67668;52.294;4.692;2023-05-10T00:39:22;18.83;;;13.33;;
78382;SDS011;67668;52.294;4.692;2023-05-10T00:41:47;18.33;;;12.50;;
78382;SDS011;67668;52.294;4.692;2023-05-10T00:44:13;20.85;;;12.95;;
78382;SDS011;67668;52.294;4.692;2023-05-10T00:46:38;18.98;;;12.25;;
78382;SDS011;67668;52.294;4.692;2023-05-10T00:49:04;19.25;;;13.45;;
78382;SDS011;67668;52.294;4.692;2023-05-10T00:51:29;19.00;;;13.02;;
78382;SDS011;67668;52.294;4.692;2023-05-10T00:53:56;19.45;;;12.43;;
78382;SDS011;67668;52.294;4.692;2023-05-10T00:56:21;21.40;;;13.40;;
78382;SDS011;67668;52.294;4.692;2023-05-10T00:58:48;22.17;;;14.80;;
78382;SDS011;67668;52.294;4.692;2023-05-10T01:01:14;23.45;;;13.85;;
78382;SDS011;67668;52.294;4.692;2023-05-10T01:03:39;20.60;;;12.98;;
78382;SDS011;67668;52.294;4.692;2023-05-10T01:06:05;21.02;;;13.70;;
78382;SDS011;67668;52.294;4.692;2023-05-10T01:08:31;24.38;;;13.50;;
78382;SDS011;67668;52.294;4.692;2023-05-10T01:10:57;23.60;;;14.45;;
78382;SDS011;67668;52.294;4.692;2023-05-10T01:13:38;21.88;;;13.95;;
78382;SDS011;67668;52.294;4.692;2023-05-10T01:16:06;19.42;;;12.82;;
78382;SDS011;67668;52.294;4.692;2023-05-10T01:18:35;21.95;;;14.35;;
78382;SDS011;67668;52.294;4.692;2023-05-10T01:27:25;21.35;;;13.43;;
78382;SDS011;67668;52.294;4.692;2023-05-10T01:32:21;19.02;;;12.85;;
78382;SDS011;67668;52.294;4.692;2023-05-10T01:35:29;24.60;;;14.27;;
78382;SDS011;67668;52.294;4.692;2023-05-10T01:38:21;20.38;;;12.93;;
78382;SDS011;67668;52.294;4.692;2023-05-10T01:43:52;24.20;;;13.90;;
78382;SDS011;67668;52.294;4.692;2023-05-10T01:46:40;23.80;;;14.30;;
78382;SDS011;67668;52.294;4.692;2023-05-10T01:49:09;24.10;;;15.40;;
78382;SDS011;67668;52.294;4.692;2023-05-10T01:51:50;23.35;;;14.82;;
78382;SDS011;67668;52.294;4.692;2023-05-10T01:54:20;25.52;;;15.15;;
78382;SDS011;67668;52.294;4.692;2023-05-10T01:56:52;22.23;;;13.95;;
78382;SDS011;67668;52.294;4.692;2023-05-10T01:59:24;24.48;;;14.50;;
78382;SDS011;67668;52.294;4.692;2023-05-10T02:01:54;24.45;;;14.82;;
78382;SDS011;67668;52.294;4.692;2023-05-10T02:04:25;20.85;;;14.32;;
78382;SDS011;67668;52.294;4.692;2023-05-10T02:06:52;25.30;;;14.82;;
78382;SDS011;67668;52.294;4.692;2023-05-10T02:09:20;24.13;;;15.65;;
78382;SDS011;67668;52.294;4.692;2023-05-10T02:11:46;26.45;;;15.20;;
78382;SDS011;67668;52.294;4.692;2023-05-10T02:14:14;26.10;;;16.00;;
78382;SDS011;67668;52.294;4.692;2023-05-10T02:16:40;22.33;;;14.68;;
78382;SDS011;67668;52.294;4.692;2023-05-10T02:19:07;28.33;;;17.52;;
78382;SDS011;67668;52.294;4.692;2023-05-10T02:21:33;24.73;;;15.07;;
78382;SDS011;67668;52.294;4.692;2023-05-10T02:24:01;25.70;;;14.43;;
78382;SDS011;67668;52.294;4.692;2023-05-10T02:26:29;26.92;;;16.23;;
78382;SDS011;67668;52.294;4.692;2023-05-10T02:28:56;27.90;;;17.42;;
78382;SDS011;67668;52.294;4.692;2023-05-10T02:31:23;24.65;;;15.70;;
78382;SDS011;67668;52.294;4.692;2023-05-10T02:33:49;25.25;;;16.52;;
78382;SDS011;67668;52.294;4.692;2023-05-10T02:36:16;24.70;;;16.15;;
78382;SDS011;67668;52.294;4.692;2023-05-10T02:38:42;24.33;;;16.10;;
78382;SDS011;67668;52.294;4.692;2023-05-10T02:41:09;23.83;;;15.65;;
78382;SDS011;67668;52.294;4.692;2023-05-10T02:43:36;28.40;;;15.90;;
78382;SDS011;67668;52.294;4.692;2023-05-10T02:46:04;27.63;;;16.33;;
78382;SDS011;67668;52.294;4.692;2023-05-10T02:48:29;31.27;;;17.17;;
78382;SDS011;67668;52.294;4.692;2023-05-10T02:50:56;29.08;;;17.90;;
78382;SDS011;67668;52.294;4.692;2023-05-10T02:53:34;30.77;;;18.17;;
78382;SDS011;67668;52.294;4.692;2023-05-10T02:56:10;35.92;;;18.65;;
78382;SDS011;67668;52.294;4.692;2023-05-10T02:58:39;31.90;;;18.08;;
78382;SDS011;67668;52.294;4.692;2023-05-10T03:01:04;33.53;;;17.90;;
78382;SDS011;67668;52.294;4.692;2023-05-10T03:03:29;27.88;;;16.83;;
78382;SDS011;67668;52.294;4.692;2023-05-10T03:05:55;33.25;;;17.75;;
78382;SDS011;67668;52.294;4.692;2023-05-10T03:08:22;28.50;;;18.85;;
78382;SDS011;67668;52.294;4.692;2023-05-10T03:10:53;28.98;;;15.43;;
78382;SDS011;67668;52.294;4.692;2023-05-10T03:13:35;22.58;;;15.07;;
78382;SDS011;67668;52.294;4.692;2023-05-10T03:16:10;20.40;;;13.02;;
78382;SDS011;67668;52.294;4.692;2023-05-10T03:21:49;18.65;;;10.52;;
78382;SDS011;67668;52.294;4.692;2023-05-10T03:24:18;19.58;;;9.90;;
78382;SDS011;67668;52.294;4.692;2023-05-10T03:26:46;18.98;;;8.65;;
78382;SDS011;67668;52.294;4.692;2023-05-10T03:29:12;14.63;;;8.00;;
78382;SDS011;67668;52.294;4.692;2023-05-10T03:31:39;12.75;;;7.03;;
78382;SDS011;67668;52.294;4.692;2023-05-10T03:34:05;17.92;;;6.90;;
78382;SDS011;67668;52.294;4.692;2023-05-10T03:36:31;11.40;;;6.78;;
78382;SDS011;67668;52.294;4.692;2023-05-10T03:38:56;11.90;;;7.05;;
78382;SDS011;67668;52.294;4.692;2023-05-10T03:41:22;11.57;;;6.43;;
78382;SDS011;67668;52.294;4.692;2023-05-10T03:43:47;9.52;;;6.03;;
78382;SDS011;67668;52.294;4.692;2023-05-10T03:46:12;10.27;;;6.33;;
78382;SDS011;67668;52.294;4.692;2023-05-10T03:48:38;10.48;;;6.28;;
78382;SDS011;67668;52.294;4.692;2023-05-10T03:51:03;14.05;;;7.95;;
78382;SDS011;67668;52.294;4.692;2023-05-10T03:53:29;11.15;;;6.75;;
78382;SDS011;67668;52.294;4.692;2023-05-10T03:55:54;11.00;;;6.30;;
78382;SDS011;67668;52.294;4.692;2023-05-10T03:58:19;12.10;;;6.82;;
78382;SDS011;67668;52.294;4.692;2023-05-10T04:00:46;11.67;;;7.03;;
78382;SDS011;67668;52.294;4.692;2023-05-10T04:03:11;14.80;;;6.88;;
78382;SDS011;67668;52.294;4.692;2023-05-10T04:05:37;10.35;;;6.40;;
78382;SDS011;67668;52.294;4.692;2023-05-10T04:08:04;13.77;;;7.10;;
78382;SDS011;67668;52.294;4.692;2023-05-10T04:10:30;13.88;;;8.45;;
78382;SDS011;67668;52.294;4.692;2023-05-10T04:12:55;13.48;;;7.55;;
78382;SDS011;67668;52.294;4.692;2023-05-10T04:15:21;16.13;;;7.53;;
78382;SDS011;67668;52.294;4.692;2023-05-10T04:17:46;12.88;;;7.32;;
78382;SDS011;67668;52.294;4.692;2023-05-10T04:20:12;13.40;;;7.57;;
78382;SDS011;67668;52.294;4.692;2023-05-10T04:22:37;15.15;;;7.68;;
78382;SDS011;67668;52.294;4.692;2023-05-10T04:25:03;16.40;;;8.27;;
78382;SDS011;67668;52.294;4.692;2023-05-10T04:27:29;13.05;;;7.70;;
78382;SDS011;67668;52.294;4.692;2023-05-10T04:29:55;13.55;;;7.20;;
78382;SDS011;67668;52.294;4.692;2023-05-10T04:32:20;13.20;;;7.47;;
78382;SDS011;67668;52.294;4.692;2023-05-10T04:34:46;15.45;;;7.65;;
78382;SDS011;67668;52.294;4.692;2023-05-10T04:37:12;11.73;;;7.22;;
78382;SDS011;67668;52.294;4.692;2023-05-10T04:39:37;14.32;;;7.90;;
78382;SDS011;67668;52.294;4.692;2023-05-10T04:42:02;13.30;;;7.53;;
78382;SDS011;67668;52.294;4.692;2023-05-10T04:44:30;12.77;;;7.32;;
78382;SDS011;67668;52.294;4.692;2023-05-10T04:46:56;11.98;;;6.72;;
78382;SDS011;67668;52.294;4.692;2023-05-10T04:49:22;11.40;;;6.50;;
78382;SDS011;67668;52.294;4.692;2023-05-10T04:51:47;15.00;;;7.25;;
78382;SDS011;67668;52.294;4.692;2023-05-10T04:54:12;12.98;;;7.07;;
78382;SDS011;67668;52.294;4.692;2023-05-10T04:56:38;11.85;;;7.38;;
78382;SDS011;67668;52.294;4.692;2023-05-10T04:59:03;12.45;;;6.88;;
78382;SDS011;67668;52.294;4.692;2023-05-10T05:01:29;12.93;;;6.97;;
78382;SDS011;67668;52.294;4.692;2023-05-10T05:03:54;10.75;;;6.45;;
78382;SDS011;67668;52.294;4.692;2023-05-10T05:06:21;11.40;;;6.77;;
78382;SDS011;67668;52.294;4.692;2023-05-10T05:08:46;11.52;;;6.85;;
78382;SDS011;67668;52.294;4.692;2023-05-10T05:11:12;10.90;;;7.05;;
78382;SDS011;67668;52.294;4.692;2023-05-10T05:13:38;13.20;;;6.85;;
78382;SDS011;67668;52.294;4.692;2023-05-10T05:16:03;14.60;;;7.35;;
78382;SDS011;67668;52.294;4.692;2023-05-10T05:18:30;12.25;;;6.60;;
78382;SDS011;67668;52.294;4.692;2023-05-10T05:20:55;15.05;;;8.02;;
78382;SDS011;67668;52.294;4.692;2023-05-10T05:23:20;11.85;;;6.15;;
78382;SDS011;67668;52.294;4.692;2023-05-10T05:25:50;14.35;;;7.25;;
78382;SDS011;67668;52.294;4.692;2023-05-10T05:28:16;13.48;;;7.72;;
78382;SDS011;67668;52.294;4.692;2023-05-10T05:30:42;12.45;;;6.78;;
78382;SDS011;67668;52.294;4.692;2023-05-10T05:33:07;13.67;;;7.40;;
78382;SDS011;67668;52.294;4.692;2023-05-10T05:35:33;12.48;;;6.97;;
78382;SDS011;67668;52.294;4.692;2023-05-10T05:37:58;12.07;;;7.70;;
78382;SDS011;67668;52.294;4.692;2023-05-10T05:40:23;11.07;;;6.37;;
78382;SDS011;67668;52.294;4.692;2023-05-10T05:42:49;13.17;;;7.20;;
78382;SDS011;67668;52.294;4.692;2023-05-10T05:45:14;15.20;;;8.02;;
78382;SDS011;67668;52.294;4.692;2023-05-10T05:47:40;13.75;;;7.50;;
78382;SDS011;67668;52.294;4.692;2023-05-10T05:50:06;14.77;;;7.75;;
78382;SDS011;67668;52.294;4.692;2023-05-10T05:52:31;17.85;;;8.05;;
78382;SDS011;67668;52.294;4.692;2023-05-10T05:54:57;17.13;;;8.07;;
78382;SDS011;67668;52.294;4.692;2023-05-10T05:57:22;14.57;;;8.05;;
78382;SDS011;67668;52.294;4.692;2023-05-10T05:59:49;18.67;;;8.85;;
78382;SDS011;67668;52.294;4.692;2023-05-10T06:02:14;15.40;;;8.38;;
78382;SDS011;67668;52.294;4.692;2023-05-10T06:04:40;18.43;;;8.97;;
78382;SDS011;67668;52.294;4.692;2023-05-10T06:07:05;14.77;;;7.60;;
78382;SDS011;67668;52.294;4.692;2023-05-10T06:09:30;19.17;;;8.23;;
78382;SDS011;67668;52.294;4.692;2023-05-10T06:11:56;11.27;;;6.72;;
78382;SDS011;67668;52.294;4.692;2023-05-10T06:14:22;13.57;;;6.97;;
78382;SDS011;67668;52.294;4.692;2023-05-10T06:16:48;16.20;;;8.40;;
78382;SDS011;67668;52.294;4.692;2023-05-10T06:19:14;14.10;;;7.97;;
78382;SDS011;67668;52.294;4.692;2023-05-10T06:21:39;15.25;;;8.10;;
78382;SDS011;67668;52.294;4.692;2023-05-10T06:24:10;14.82;;;8.13;;
78382;SDS011;67668;52.294;4.692;2023-05-10T06:26:38;14.07;;;8.35;;
78382;SDS011;67668;52.294;4.692;2023-05-10T06:29:03;13.70;;;7.35;;
78382;SDS011;67668;52.294;4.692;2023-05-10T06:31:29;14.68;;;8.55;;
78382;SDS011;67668;52.294;4.692;2023-05-10T06:33:54;15.93;;;7.43;;
78382;SDS011;67668;52.294;4.692;2023-05-10T06:36:19;15.70;;;6.45;;
78382;SDS011;67668;52.294;4.692;2023-05-10T06:38:45;13.57;;;6.65;;
78382;SDS011;67668;52.294;4.692;2023-05-10T06:41:10;13.15;;;6.63;;
78382;SDS011;67668;52.294;4.692;2023-05-10T06:43:36;12.70;;;6.50;;
78382;SDS011;67668;52.294;4.692;2023-05-10T06:46:04;13.93;;;6.72;;
78382;SDS011;67668;52.294;4.692;2023-05-10T06:48:30;15.90;;;6.80;;
78382;SDS011;67668;52.294;4.692;2023-05-10T06:50:56;11.35;;;5.95;;
78382;SDS011;67668;52.294;4.692;2023-05-10T06:53:21;10.98;;;5.70;;
78382;SDS011;67668;52.294;4.692;2023-05-10T06:55:46;10.02;;;5.22;;
78382;SDS011;67668;52.294;4.692;2023-05-10T06:58:13;11.00;;;5.63;;
78382;SDS011;67668;52.294;4.692;2023-05-10T07:00:39;9.13;;;4.80;;
78382;SDS011;67668;52.294;4.692;2023-05-10T07:03:05;7.15;;;3.60;;
78382;SDS011;67668;52.294;4.692;2023-05-10T07:05:31;7.95;;;4.85;;
78382;SDS011;67668;52.294;4.692;2023-05-10T07:07:56;8.57;;;4.20;;
78382;SDS011;67668;52.294;4.692;2023-05-10T07:10:22;7.18;;;4.55;;
78382;SDS011;67668;52.294;4.692;2023-05-10T07:12:47;7.20;;;3.37;;
78382;SDS011;67668;52.294;4.692;2023-05-10T07:15:13;8.90;;;4.77;;
78382;SDS011;67668;52.294;4.692;2023-05-10T07:17:38;7.65;;;3.65;;
78382;SDS011;67668;52.294;4.692;2023-05-10T07:20:04;6.00;;;3.28;;
78382;SDS011;67668;52.294;4.692;2023-05-10T07:22:30;7.05;;;3.45;;
78382;SDS011;67668;52.294;4.692;2023-05-10T07:24:55;6.10;;;3.45;;
78382;SDS011;67668;52.294;4.692;2023-05-10T07:27:21;7.17;;;3.40;;
78382;SDS011;67668;52.294;4.692;2023-05-10T07:29:47;6.75;;;3.50;;
78382;SDS011;67668;52.294;4.692;2023-05-10T07:32:12;6.05;;;3.60;;
78382;SDS011;67668;52.294;4.692;2023-05-10T07:34:38;5.78;;;3.45;;
78382;SDS011;67668;52.294;4.692;2023-05-10T07:37:03;6.22;;;3.88;;
78382;SDS011;67668;52.294;4.692;2023-05-10T07:39:29;6.22;;;3.65;;
78382;SDS011;67668;52.294;4.692;2023-05-10T07:41:54;5.53;;;3.50;;
78382;SDS011;67668;52.294;4.692;2023-05-10T07:44:20;6.15;;;3.38;;
78382;SDS011;67668;52.294;4.692;2023-05-10T07:46:46;5.25;;;3.03;;
78382;SDS011;67668;52.294;4.692;2023-05-10T07:49:12;5.40;;;3.40;;
78382;SDS011;67668;52.294;4.692;2023-05-10T07:51:38;8.50;;;3.42;;
78382;SDS011;67668;52.294;4.692;2023-05-10T07:54:03;8.60;;;4.32;;
78382;SDS011;67668;52.294;4.692;2023-05-10T07:56:30;7.38;;;3.90;;
78382;SDS011;67668;52.294;4.692;2023-05-10T07:59:00;8.55;;;4.10;;
78382;SDS011;67668;52.294;4.692;2023-05-10T08:01:27;6.88;;;4.22;;
78382;SDS011;67668;52.294;4.692;2023-05-10T08:03:55;8.57;;;4.13;;
78382;SDS011;67668;52.294;4.692;2023-05-10T08:06:20;10.70;;;4.20;;
78382;SDS011;67668;52.294;4.692;2023-05-10T08:08:47;6.72;;;3.85;;
78382;SDS011;67668;52.294;4.692;2023-05-10T08:11:16;8.00;;;4.20;;
78382;SDS011;67668;52.294;4.692;2023-05-10T08:13:42;8.57;;;4.15;;
78382;SDS011;67668;52.294;4.692;2023-05-10T08:16:08;8.52;;;4.28;;
78382;SDS011;67668;52.294;4.692;2023-05-10T08:18:33;7.87;;;3.77;;
78382;SDS011;67668;52.294;4.692;2023-05-10T08:20:58;8.25;;;4.50;;
78382;SDS011;67668;52.294;4.692;2023-05-10T08:23:25;6.78;;;4.38;;
78382;SDS011;67668;52.294;4.692;2023-05-10T08:25:50;10.77;;;3.67;;
78382;SDS011;67668;52.294;4.692;2023-05-10T08:28:16;5.85;;;3.90;;
78382;SDS011;67668;52.294;4.692;2023-05-10T08:30:41;7.63;;;3.93;;
78382;SDS011;67668;52.294;4.692;2023-05-10T08:33:09;7.55;;;4.03;;
78382;SDS011;67668;52.294;4.692;2023-05-10T08:35:34;7.20;;;4.43;;
78382;SDS011;67668;52.294;4.692;2023-05-10T08:38:00;6.37;;;3.70;;
78382;SDS011;67668;52.294;4.692;2023-05-10T08:40:26;9.48;;;4.45;;
78382;SDS011;67668;52.294;4.692;2023-05-10T08:42:55;7.10;;;4.13;;
78382;SDS011;67668;52.294;4.692;2023-05-10T08:45:25;7.18;;;3.85;;
78382;SDS011;67668;52.294;4.692;2023-05-10T08:47:53;8.35;;;3.80;;
78382;SDS011;67668;52.294;4.692;2023-05-10T08:50:19;9.82;;;3.95;;
78382;SDS011;67668;52.294;4.692;2023-05-10T08:52:46;9.98;;;4.75;;
78382;SDS011;67668;52.294;4.692;2023-05-10T08:55:15;8.73;;;4.45;;
78382;SDS011;67668;52.294;4.692;2023-05-10T08:57:41;8.55;;;3.38;;
78382;SDS011;67668;52.294;4.692;2023-05-10T09:00:06;11.20;;;4.13;;
78382;SDS011;67668;52.294;4.692;2023-05-10T09:02:33;6.78;;;3.22;;
78382;SDS011;67668;52.294;4.692;2023-05-10T09:04:59;6.43;;;3.95;;
78382;SDS011;67668;52.294;4.692;2023-05-10T09:07:25;11.75;;;4.18;;
78382;SDS011;67668;52.294;4.692;2023-05-10T09:09:51;8.75;;;3.33;;
78382;SDS011;67668;52.294;4.692;2023-05-10T09:12:17;6.65;;;2.95;;
78382;SDS011;67668;52.294;4.692;2023-05-10T09:14:42;6.95;;;3.60;;
78382;SDS011;67668;52.294;4.692;2023-05-10T09:17:09;8.43;;;3.65;;
78382;SDS011;67668;52.294;4.692;2023-05-10T09:19:35;12.30;;;3.72;;
78382;SDS011;67668;52.294;4.692;2023-05-10T09:22:00;6.70;;;3.17;;
78382;SDS011;67668;52.294;4.692;2023-05-10T09:24:28;6.45;;;3.25;;
78382;SDS011;67668;52.294;4.692;2023-05-10T09:26:55;7.32;;;3.40;;
78382;SDS011;67668;52.294;4.692;2023-05-10T09:29:23;6.35;;;3.63;;
78382;SDS011;67668;52.294;4.692;2023-05-10T09:31:49;7.68;;;2.97;;
78382;SDS011;67668;52.294;4.692;2023-05-10T09:34:19;5.18;;;3.20;;
78382;SDS011;67668;52.294;4.692;2023-05-10T09:37:04;7.30;;;3.58;;
78382;SDS011;67668;52.294;4.692;2023-05-10T09:39:30;5.30;;;3.05;;
78382;SDS011;67668;52.294;4.692;2023-05-10T09:42:01;6.20;;;3.30;;
78382;SDS011;67668;52.294;4.692;2023-05-10T09:44:28;9.60;;;3.72;;
78382;SDS011;67668;52.294;4.692;2023-05-10T09:46:54;7.65;;;3.97;;
78382;SDS011;67668;52.294;4.692;2023-05-10T09:49:20;6.57;;;4.47;;
78382;SDS011;67668;52.294;4.692;2023-05-10T09:51:46;8.05;;;3.88;;
78382;SDS011;67668;52.294;4.692;2023-05-10T09:54:13;9.18;;;4.40;;
78382;SDS011;67668;52.294;4.692;2023-05-10T09:56:40;7.07;;;3.72;;
78382;SDS011;67668;52.294;4.692;2023-05-10T09:59:07;9.07;;;3.30;;
78382;SDS011;67668;52.294;4.692;2023-05-10T10:01:36;8.57;;;3.67;;
78382;SDS011;67668;52.294;4.692;2023-05-10T10:04:05;9.48;;;2.92;;
78382;SDS011;67668;52.294;4.692;2023-05-10T10:06:37;6.90;;;3.33;;
78382;SDS011;67668;52.294;4.692;2023-05-10T10:09:04;7.80;;;3.67;;
78382;SDS011;67668;52.294;4.692;2023-05-10T10:11:30;6.70;;;3.03;;
78382;SDS011;67668;52.294;4.692;2023-05-10T10:13:56;5.88;;;3.35;;
78382;SDS011;67668;52.294;4.692;2023-05-10T10:16:21;7.73;;;3.80;;
78382;SDS011;67668;52.294;4.692;2023-05-10T10:18:47;7.80;;;3.65;;
78382;SDS011;67668;52.294;4.692;2023-05-10T10:21:13;10.13;;;3.95;;
78382;SDS011;67668;52.294;4.692;2023-05-10T10:23:40;7.55;;;3.50;;
78382;SDS011;67668;52.294;4.692;2023-05-10T10:26:05;5.90;;;3.83;;
78382;SDS011;67668;52.294;4.692;2023-05-10T10:31:41;6.93;;;3.53;;
78382;SDS011;67668;52.294;4.692;2023-05-10T10:36:51;5.65;;;3.00;;
78382;SDS011;67668;52.294;4.692;2023-05-10T10:39:17;5.57;;;3.40;;
78382;SDS011;67668;52.294;4.692;2023-05-10T10:41:51;7.18;;;4.03;;
78382;SDS011;67668;52.294;4.692;2023-05-10T10:52:39;6.35;;;4.25;;
78382;SDS011;67668;52.294;4.692;2023-05-10T11:00:19;12.57;;;5.55;;
78382;SDS011;67668;52.294;4.692;2023-05-10T11:02:48;15.88;;;5.70;;
78382;SDS011;67668;52.294;4.692;2023-05-10T11:08:12;12.02;;;5.75;;
78382;SDS011;67668;52.294;4.692;2023-05-10T11:10:51;12.88;;;6.50;;
78382;SDS011;67668;52.294;4.692;2023-05-10T11:15:54;9.57;;;5.80;;
78382;SDS011;67668;52.294;4.692;2023-05-10T11:18:23;14.10;;;7.18;;
78382;SDS011;67668;52.294;4.692;2023-05-10T11:23:31;9.30;;;5.32;;
78382;SDS011;67668;52.294;4.692;2023-05-10T11:25:59;10.70;;;4.82;;
78382;SDS011;67668;52.294;4.692;2023-05-10T11:28:25;10.20;;;5.38;;
78382;SDS011;67668;52.294;4.692;2023-05-10T11:30:52;12.85;;;6.15;;
78382;SDS011;67668;52.294;4.692;2023-05-10T11:33:17;11.68;;;6.55;;
78382;SDS011;67668;52.294;4.692;2023-05-10T11:35:44;11.00;;;6.35;;
78382;SDS011;67668;52.294;4.692;2023-05-10T11:38:10;15.43;;;6.90;;
78382;SDS011;67668;52.294;4.692;2023-05-10T11:40:37;14.82;;;6.45;;
78382;SDS011;67668;52.294;4.692;2023-05-10T11:43:03;16.35;;;7.22;;
78382;SDS011;67668;52.294;4.692;2023-05-10T11:45:32;15.75;;;6.80;;
78382;SDS011;67668;52.294;4.692;2023-05-10T11:47:58;18.73;;;8.75;;
78382;SDS011;67668;52.294;4.692;2023-05-10T11:50:23;19.63;;;7.65;;
78382;SDS011;67668;52.294;4.692;2023-05-10T11:52:53;20.42;;;7.63;;
78382;SDS011;67668;52.294;4.692;2023-05-10T11:55:19;18.83;;;7.72;;
78382;SDS011;67668;52.294;4.692;2023-05-10T11:57:45;15.43;;;7.00;;
78382;SDS011;67668;52.294;4.692;2023-05-10T12:00:11;15.82;;;7.45;;
78382;SDS011;67668;52.294;4.692;2023-05-10T12:02:37;17.67;;;7.10;;
78382;SDS011;67668;52.294;4.692;2023-05-10T12:05:04;17.52;;;6.65;;
78382;SDS011;67668;52.294;4.692;2023-05-10T12:07:30;13.40;;;6.15;;
78382;SDS011;67668;52.294;4.692;2023-05-10T12:10:12;15.38;;;6.43;;
78382;SDS011;67668;52.294;4.692;2023-05-10T12:12:45;13.25;;;6.75;;
78382;SDS011;67668;52.294;4.692;2023-05-10T12:15:18;18.08;;;7.28;;
78382;SDS011;67668;52.294;4.692;2023-05-10T12:17:45;14.48;;;6.53;;
78382;SDS011;67668;52.294;4.692;2023-05-10T12:20:15;15.85;;;6.75;;
78382;SDS011;67668;52.294;4.692;2023-05-10T12:22:51;16.73;;;7.15;;
78382;SDS011;67668;52.294;4.692;2023-05-10T12:25:21;16.05;;;7.88;;
78382;SDS011;67668;52.294;4.692;2023-05-10T12:27:49;14.63;;;7.03;;
78382;SDS011;67668;52.294;4.692;2023-05-10T12:30:34;16.73;;;7.22;;
78382;SDS011;67668;52.294;4.692;2023-05-10T12:33:02;13.43;;;6.75;;
78382;SDS011;67668;52.294;4.692;2023-05-10T12:35:32;15.77;;;6.75;;
78382;SDS011;67668;52.294;4.692;2023-05-10T12:37:58;16.55;;;6.78;;
78382;SDS011;67668;52.294;4.692;2023-05-10T12:40:23;15.20;;;6.03;;
78382;SDS011;67668;52.294;4.692;2023-05-10T12:42:49;17.50;;;6.32;;
78382;SDS011;67668;52.294;4.692;2023-05-10T12:45:14;18.40;;;6.63;;
78382;SDS011;67668;52.294;4.692;2023-05-10T12:47:40;17.33;;;6.75;;
78382;SDS011;67668;52.294;4.692;2023-05-10T12:50:05;13.63;;;5.45;;
78382;SDS011;67668;52.294;4.692;2023-05-10T12:52:31;14.60;;;5.70;;
78382;SDS011;67668;52.294;4.692;2023-05-10T12:54:57;13.27;;;5.35;;
78382;SDS011;67668;52.294;4.692;2023-05-10T12:57:23;14.82;;;5.90;;
78382;SDS011;67668;52.294;4.692;2023-05-10T12:59:58;12.70;;;5.50;;
78382;SDS011;67668;52.294;4.692;2023-05-10T13:02:24;14.95;;;5.13;;
78382;SDS011;67668;52.294;4.692;2023-05-10T13:04:49;11.88;;;5.15;;
78382;SDS011;67668;52.294;4.692;2023-05-10T13:07:15;17.50;;;5.43;;
78382;SDS011;67668;52.294;4.692;2023-05-10T13:09:40;13.90;;;5.80;;
78382;SDS011;67668;52.294;4.692;2023-05-10T13:12:06;13.63;;;6.80;;
78382;SDS011;67668;52.294;4.692;2023-05-10T13:14:32;13.65;;;5.35;;
78382;SDS011;67668;52.294;4.692;2023-05-10T13:16:57;14.23;;;6.03;;
78382;SDS011;67668;52.294;4.692;2023-05-10T13:19:23;11.18;;;5.50;;
78382;SDS011;67668;52.294;4.692;2023-05-10T13:21:48;13.15;;;4.90;;
78382;SDS011;67668;52.294;4.692;2023-05-10T13:24:13;12.30;;;5.85;;
78382;SDS011;67668;52.294;4.692;2023-05-10T13:26:39;11.23;;;5.93;;
78382;SDS011;67668;52.294;4.692;2023-05-10T13:29:05;17.88;;;5.93;;
78382;SDS011;67668;52.294;4.692;2023-05-10T13:31:31;16.48;;;6.68;;
78382;SDS011;67668;52.294;4.692;2023-05-10T13:33:56;13.33;;;4.97;;
78382;SDS011;67668;52.294;4.692;2023-05-10T13:36:22;11.38;;;4.63;;
78382;SDS011;67668;52.294;4.692;2023-05-10T13:38:48;13.45;;;5.32;;
78382;SDS011;67668;52.294;4.692;2023-05-10T13:41:13;16.23;;;5.68;;
78382;SDS011;67668;52.294;4.692;2023-05-10T13:43:39;11.23;;;5.10;;
78382;SDS011;67668;52.294;4.692;2023-05-10T13:46:04;13.40;;;5.37;;
78382;SDS011;67668;52.294;4.692;2023-05-10T13:48:29;11.45;;;4.60;;
78382;SDS011;67668;52.294;4.692;2023-05-10T13:50:55;11.65;;;5.47;;
78382;SDS011;67668;52.294;4.692;2023-05-10T13:53:21;10.30;;;4.97;;
78382;SDS011;67668;52.294;4.692;2023-05-10T13:55:46;8.43;;;4.68;;
78382;SDS011;67668;52.294;4.692;2023-05-10T13:58:12;10.18;;;4.63;;
78382;SDS011;67668;52.294;4.692;2023-05-10T14:00:37;8.68;;;4.70;;
78382;SDS011;67668;52.294;4.692;2023-05-10T14:03:03;10.75;;;5.43;;
78382;SDS011;67668;52.294;4.692;2023-05-10T14:05:29;11.52;;;4.93;;
78382;SDS011;67668;52.294;4.692;2023-05-10T14:07:55;9.60;;;4.10;;
78382;SDS011;67668;52.294;4.692;2023-05-10T14:10:21;8.65;;;4.43;;
78382;SDS011;67668;52.294;4.692;2023-05-10T14:12:46;10.40;;;4.57;;
78382;SDS011;67668;52.294;4.692;2023-05-10T14:15:11;14.75;;;5.07;;
78382;SDS011;67668;52.294;4.692;2023-05-10T14:17:37;7.97;;;4.47;;
78382;SDS011;67668;52.294;4.692;2023-05-10T14:20:02;9.80;;;4.25;;
78382;SDS011;67668;52.294;4.692;2023-05-10T14:22:28;9.32;;;4.07;;
78382;SDS011;67668;52.294;4.692;2023-05-10T14:24:54;10.50;;;4.25;;
78382;SDS011;67668;52.294;4.692;2023-05-10T14:27:20;10.27;;;4.65;;
78382;SDS011;67668;52.294;4.692;2023-05-10T14:29:45;11.18;;;4.38;;
78382;SDS011;67668;52.294;4.692;2023-05-10T14:32:11;11.73;;;4.82;;
78382;SDS011;67668;52.294;4.692;2023-05-10T14:34:37;14.13;;;4.93;;
78382;SDS011;67668;52.294;4.692;2023-05-10T14:37:02;12.65;;;6.80;;
78382;SDS011;67668;52.294;4.692;2023-05-10T14:39:28;14.05;;;5.00;;
78382;SDS011;67668;52.294;4.692;2023-05-10T14:41:57;13.70;;;5.45;;
78382;SDS011;67668;52.294;4.692;2023-05-10T14:44:23;14.98;;;5.60;;
78382;SDS011;67668;52.294;4.692;2023-05-10T14:46:48;11.53;;;5.53;;
78382;SDS011;67668;52.294;4.692;2023-05-10T14:49:14;16.42;;;5.68;;
78382;SDS011;67668;52.294;4.692;2023-05-10T14:51:40;10.85;;;4.78;;
78382;SDS011;67668;52.294;4.692;2023-05-10T14:54:05;13.98;;;6.25;;
78382;SDS011;67668;52.294;4.692;2023-05-10T14:56:31;13.63;;;6.22;;
78382;SDS011;67668;52.294;4.692;2023-05-10T14:58:56;12.30;;;6.18;;
78382;SDS011;67668;52.294;4.692;2023-05-10T15:01:22;16.30;;;6.70;;
78382;SDS011;67668;52.294;4.692;2023-05-10T15:03:47;12.35;;;5.88;;
78382;SDS011;67668;52.294;4.692;2023-05-10T15:06:14;12.63;;;5.60;;
78382;SDS011;67668;52.294;4.692;2023-05-10T15:08:40;12.45;;;5.82;;
78382;SDS011;67668;52.294;4.692;2023-05-10T15:11:06;10.88;;;5.80;;
78382;SDS011;67668;52.294;4.692;2023-05-10T15:13:31;12.37;;;5.97;;
78382;SDS011;67668;52.294;4.692;2023-05-10T15:15:57;11.17;;;5.47;;
78382;SDS011;67668;52.294;4.692;2023-05-10T15:18:22;10.70;;;5.35;;